• Join FlightAware (Why Join?)
  • Login
  • US Flag 
10:24AM EDT


 

Airport Tracker/Info


-or-


 

Live Flight TrackerFlight Track Log ✈ DAL4888 ✈ 07-May-2013 ✈ KATL - KTRI

Flight Track Log - Related Links

Times and Time Zones

All times are in EDT time to prevent confusion due to time zone crossing. See the DAL4888 flight status page for this flight to view local times or setup timezone preferences in your user account.

Time Position Orientation Groundspeed Altitude Reporting Facility
EDT Latitude Longitude Course Direction KTS MPH feet Rate Location/Type
09:07PM 33.6500 -84.4667 296° West 151 174 2,700  Level Atlanta TRACON
09:08PM 33.6833 -84.5500 296° West 244 281 5,000 2,400 Climbing Atlanta TRACON
09:09PM 33.7333 -84.5833 331° Northwest 260 299 7,800 1,860 Climbing Atlanta TRACON
09:11PM 33.8622 -84.5192 22° Northeast 278 320 11,000 1,620 Climbing Atlanta Center
09:12PM 33.9419 -84.4069 49° Northeast 337 388 13,000 1,800 Climbing Atlanta Center
09:13PM 34.0297 -84.3722 18° North 343 395 14,600 1,560 Climbing Atlanta Center
09:14PM 34.1278 -84.3375 16° North 335 386 16,200 1,440 Climbing Atlanta Center
09:15PM 34.2197 -84.3075 15° North 363 418 17,500 1,440 Climbing Atlanta Center
09:16PM 34.3178 -84.2753 15° North 363 418 19,100 1,500 Climbing Atlanta Center
09:17PM 34.4139 -84.2528 11° North 363 418 20,500 900 Climbing Atlanta Center
09:18PM 34.5183 -84.2303 10° North 357 411 21,000 240 Climbing Atlanta Center
09:19PM 34.6081 -84.1600 33° Northeast 368 423 21,000  Level Atlanta Center
09:20PM 34.7022 -84.0742 37° Northeast 376 433 21,000  Level Atlanta Center
09:21PM 34.7897 -83.9958 36° Northeast 382 440 21,000  Level Atlanta Center
09:22PM 34.8817 -83.9097 38° Northeast 394 453 21,000  Level Atlanta Center
09:23PM 34.9753 -83.8208 38° Northeast 406 467 21,000  Level Atlanta Center
09:24PM 35.0689 -83.7367 36° Northeast 417 480 21,000  Level Atlanta Center
09:25PM 35.1586 -83.6500 38° Northeast 417 480 21,000  Level Atlanta Center
09:26PM 35.2481 -83.5658 38° Northeast 411 473 21,000  Level Atlanta Center
09:27PM 35.3372 -83.4839 37° Northeast 411 473 21,000  Level Atlanta Center
09:28PM 35.4286 -83.3989 37° Northeast 411 473 21,000  Level Atlanta Center
09:29PM 35.5181 -83.3142 38° Northeast 416 479 21,000 -480 Level Atlanta Center
09:30PM 35.6072 -83.2289 38° Northeast 416 479 20,100 -1,200 Descending Atlanta Center
09:31PM 35.6839 -83.1542 38° Northeast 410 472 18,700 -1,560 Descending Atlanta Center
09:32PM 35.7644 -83.0739 39° Northeast 387 445 17,000 -1,200 Descending Atlanta Center
09:33PM 35.8367 -82.9833 45° Northeast 370 426 16,400 -1,260 Descending Atlanta Center
09:34PM 35.9089 -82.8850 48° Northeast 370 426 14,500 -1,860 Descending Atlanta Center
09:35PM 35.9747 -82.7917 49° Northeast 364 419 12,700 -1,800 Descending Atlanta Center
09:36PM 36.0406 -82.7008 48° Northeast 364 419 10,900 -1,380 Descending Atlanta Center
09:37PM 36.1061 -82.6072 49° Northeast 354 407 10,000 -540 Descending Atlanta Center
09:38PM 36.1911 -82.5594 24° Northeast 340 391 9,900 -780 Descending Atlanta Center
09:39PM 36.2617 -82.5247 22° Northeast 295 339 8,500 -1,620 Descending Atlanta Center
09:40PM 36.3236 -82.4772 32° Northeast 263 303 6,700 -1,800 Descending Atlanta Center
09:41PM 36.3772 -82.4219 40° Northeast 246 283 5,000 -1,380 Descending Atlanta Center
09:42PM 36.4286 -82.3617 43° Northeast 252 290 4,000 -1,020 Descending Atlanta Center
09:44PM 36.4667 -82.4000 270° West  Level FlightAware Approximate
09:51PM 36.4752 -82.4074 270° West  Level Estimated
09:52PM 36.4752 -82.4074 270° West  Level Estimated
09:53PM 36.4752 -82.4074 270° West  Level Estimated
09:54PM 36.4752 -82.4074 270° West  Level Estimated
09:55PM 36.4752 -82.4074 270° West  Level Estimated
09:56PM 36.4752 -82.4074 270° West  Level Estimated
09:57PM 36.4752 -82.4074 270° West  Level Estimated